createdAt,value
2022-09-02T00:00:17.210Z,13.25
2022-09-02T00:01:16.722Z,13.22
2022-09-02T00:02:17.276Z,13.27
2022-09-02T00:03:17.317Z,13.27
2022-09-02T00:04:17.206Z,13.21
2022-09-02T00:05:16.633Z,13.19
2022-09-02T00:06:17.044Z,13.12
2022-09-02T00:07:16.473Z,13.09
2022-09-02T00:08:16.900Z,13.08
2022-09-02T00:09:16.330Z,13.06
2022-09-02T00:10:16.761Z,13.04
2022-09-02T00:11:17.244Z,13.04
2022-09-02T00:12:16.745Z,13.09
2022-09-02T00:13:17.225Z,13.05
2022-09-02T00:14:16.766Z,13.08
2022-09-02T00:15:17.273Z,13.05
2022-09-02T00:16:16.776Z,13.04
2022-09-02T00:17:16.344Z,13.04
2022-09-02T00:18:18.200Z,13.04
2022-09-02T00:19:16.461Z,13.04
2022-09-02T00:20:16.874Z,12.98
2022-09-02T00:21:16.302Z,12.96
2022-09-02T00:22:16.766Z,12.89
2022-09-02T00:23:17.235Z,12.88
2022-09-02T00:24:16.752Z,12.78
2022-09-02T00:25:17.230Z,12.74
2022-09-02T00:26:16.683Z,12.77
2022-09-02T00:27:17.133Z,12.71
2022-09-02T00:28:16.589Z,12.64
2022-09-02T00:29:17.050Z,12.61
2022-09-02T00:30:16.545Z,12.61
2022-09-02T00:31:17.075Z,12.53
2022-09-02T00:32:16.588Z,12.49
2022-09-02T00:33:17.043Z,12.41
2022-09-02T00:34:16.576Z,12.36
2022-09-02T00:35:17.011Z,12.49
2022-09-02T00:36:16.458Z,12.57
2022-09-02T00:37:16.920Z,12.74
2022-09-02T00:38:16.334Z,13.01
2022-09-02T00:39:16.763Z,13.09
2022-09-02T00:40:17.266Z,13.22
2022-09-02T00:41:16.959Z,13.21
2022-09-02T00:42:16.553Z,13.04
2022-09-02T00:43:17.059Z,12.85
2022-09-02T00:44:16.623Z,12.74
2022-09-02T00:45:17.099Z,12.66
2022-09-02T00:46:16.589Z,12.57
2022-09-02T00:47:17.187Z,12.58
2022-09-02T00:48:16.627Z,12.53
2022-09-02T00:49:17.042Z,12.37
2022-09-02T00:50:16.296Z,12.35
2022-09-02T00:51:17.270Z,12.30
2022-09-02T00:52:16.307Z,12.30
2022-09-02T00:53:16.772Z,12.22
2022-09-02T00:54:16.312Z,12.19
2022-09-02T00:55:16.760Z,12.18
2022-09-02T00:56:17.219Z,12.19
2022-09-02T00:57:16.693Z,12.16
2022-09-02T00:58:17.148Z,12.12
2022-09-02T00:59:16.638Z,12.11
2022-09-02T01:00:16.640Z,12.13
2022-09-02T01:01:17.289Z,12.15
2022-09-02T01:02:16.793Z,12.13
2022-09-02T01:03:16.491Z,12.11
2022-09-02T01:04:16.948Z,12.06
2022-09-02T01:05:16.363Z,12.02
2022-09-02T01:06:16.802Z,12.02
2022-09-02T01:07:17.240Z,11.98
2022-09-02T01:08:16.683Z,12.01
2022-09-02T01:09:17.133Z,12.06
2022-09-02T01:10:16.591Z,12.05
2022-09-02T01:11:17.071Z,12.06
2022-09-02T01:12:16.525Z,12.02
2022-09-02T01:13:17.034Z,12.02
2022-09-02T01:14:16.514Z,11.93
2022-09-02T01:15:17.001Z,11.92
2022-09-02T01:16:16.495Z,11.88
2022-09-02T01:17:16.938Z,11.88
2022-09-02T01:18:16.375Z,11.85
2022-09-02T01:19:16.809Z,11.82
2022-09-02T01:20:17.257Z,11.74
2022-09-02T01:21:16.708Z,11.68
2022-09-02T01:22:16.846Z,11.68
2022-09-02T01:23:17.260Z,11.65
2022-09-02T01:24:16.718Z,11.61
2022-09-02T01:25:17.166Z,11.53
2022-09-02T01:26:16.619Z,11.51
2022-09-02T01:27:17.075Z,11.51
2022-09-02T01:28:16.517Z,11.51
2022-09-02T01:29:16.981Z,11.50
2022-09-02T01:30:16.451Z,11.47
2022-09-02T01:31:16.979Z,11.49
2022-09-02T01:32:16.515Z,11.50
2022-09-02T01:33:16.944Z,11.53
2022-09-02T01:34:16.474Z,11.51
2022-09-02T01:35:16.889Z,11.54
2022-09-02T01:36:16.312Z,11.53
2022-09-02T01:37:16.731Z,11.54
2022-09-02T01:38:17.143Z,11.57
2022-09-02T01:39:16.587Z,11.54
2022-09-02T01:40:17.101Z,11.54
2022-09-02T01:41:16.655Z,11.54
2022-09-02T01:42:17.225Z,11.53
2022-09-02T01:43:16.683Z,11.50
2022-09-02T01:44:17.167Z,11.47
2022-09-02T01:45:16.602Z,11.50
2022-09-02T01:46:17.051Z,11.47
2022-09-02T01:47:16.571Z,11.53
2022-09-02T01:48:18.072Z,11.53
2022-09-02T01:49:16.385Z,11.55
2022-09-02T01:50:16.824Z,11.51
2022-09-02T01:51:17.241Z,11.49
2022-09-02T01:52:16.910Z,11.44
2022-09-02T01:53:16.353Z,11.44
2022-09-02T01:54:16.799Z,11.42
2022-09-02T01:55:17.254Z,11.42
2022-09-02T01:56:16.703Z,11.29
2022-09-02T01:57:17.164Z,11.23
2022-09-02T01:58:16.640Z,11.20
2022-09-02T01:59:17.101Z,11.23
2022-09-02T02:00:16.564Z,11.22
2022-09-02T02:01:17.076Z,11.25
2022-09-02T02:02:16.821Z,11.25
2022-09-02T02:03:16.679Z,11.23
2022-09-02T02:04:17.101Z,11.22
2022-09-02T02:05:16.512Z,11.25
2022-09-02T02:06:16.932Z,11.26
2022-09-02T02:07:16.383Z,11.25
2022-09-02T02:08:16.815Z,11.23
2022-09-02T02:09:17.250Z,11.19
2022-09-02T02:10:16.718Z,11.16
2022-09-02T02:11:17.210Z,11.17
2022-09-02T02:12:16.606Z,11.12
2022-09-02T02:13:17.094Z,11.13
2022-09-02T02:14:16.621Z,11.15
2022-09-02T02:15:17.092Z,11.15
2022-09-02T02:16:16.592Z,11.17
2022-09-02T02:17:17.182Z,11.17
2022-09-02T02:18:16.594Z,11.09
2022-09-02T02:19:16.999Z,11.03
2022-09-02T02:20:16.585Z,11.05
2022-09-02T02:21:17.007Z,11.06
2022-09-02T02:22:16.355Z,11.06
2022-09-02T02:23:16.805Z,11.02
2022-09-02T02:24:17.260Z,10.92
2022-09-02T02:25:16.735Z,10.91
2022-09-02T02:26:17.209Z,10.91
2022-09-02T02:27:16.568Z,10.91
2022-09-02T02:28:17.040Z,10.89
2022-09-02T02:29:16.512Z,10.88
2022-09-02T02:30:16.963Z,10.89
2022-09-02T02:31:16.447Z,10.91
2022-09-02T02:32:16.353Z,10.92
2022-09-02T02:33:16.759Z,10.95
2022-09-02T02:34:17.175Z,11.00
2022-09-02T02:35:16.619Z,10.94
2022-09-02T02:36:17.043Z,10.94
2022-09-02T02:37:16.479Z,10.94
2022-09-02T02:38:16.928Z,10.94
2022-09-02T02:39:16.395Z,11.00
2022-09-02T02:40:16.896Z,11.02
2022-09-02T02:41:16.745Z,11.00
2022-09-02T02:42:17.092Z,10.99
2022-09-02T02:43:16.564Z,10.99
2022-09-02T02:44:17.050Z,10.98
2022-09-02T02:45:16.508Z,10.95
2022-09-02T02:46:16.966Z,10.91
2022-09-02T02:47:16.607Z,10.87
2022-09-02T02:48:17.059Z,10.84
2022-09-02T02:49:16.470Z,10.82
2022-09-02T02:50:16.894Z,10.78
2022-09-02T02:51:16.332Z,10.77
2022-09-02T02:52:16.880Z,10.67
2022-09-02T02:53:16.327Z,10.67
2022-09-02T02:54:16.795Z,10.64
2022-09-02T02:55:17.267Z,10.65
2022-09-02T02:56:16.730Z,10.61
2022-09-02T02:57:17.189Z,10.56
2022-09-02T02:58:16.698Z,10.56
2022-09-02T02:59:17.187Z,10.52
2022-09-02T03:00:16.634Z,10.52
2022-09-02T03:01:17.085Z,10.54
2022-09-02T03:02:16.915Z,10.57
2022-09-02T03:03:16.606Z,10.56
2022-09-02T03:04:17.029Z,10.58
2022-09-02T03:05:16.440Z,10.60
2022-09-02T03:06:16.860Z,10.64
2022-09-02T03:07:16.835Z,10.72
2022-09-02T03:08:17.281Z,10.68
2022-09-02T03:09:16.723Z,10.65
2022-09-02T03:10:17.184Z,10.64
2022-09-02T03:11:16.649Z,10.58
2022-09-02T03:12:16.942Z,10.60
2022-09-02T03:13:17.147Z,10.57
2022-09-02T03:14:16.684Z,10.57
2022-09-02T03:15:17.114Z,10.54
2022-09-02T03:16:16.618Z,10.52
2022-09-02T03:17:17.119Z,10.51
2022-09-02T03:18:16.547Z,10.48
2022-09-02T03:19:16.970Z,10.45
2022-09-02T03:20:16.387Z,10.44
2022-09-02T03:21:16.818Z,10.40
2022-09-02T03:22:16.466Z,10.31
2022-09-02T03:23:16.899Z,10.31
2022-09-02T03:24:16.351Z,10.26
2022-09-02T03:25:16.832Z,10.24
2022-09-02T03:26:17.859Z,10.21
2022-09-02T03:27:16.595Z,10.17
2022-09-02T03:28:17.048Z,10.17
2022-09-02T03:29:16.484Z,10.12
2022-09-02T03:30:16.924Z,10.14
2022-09-02T03:31:16.367Z,10.10
2022-09-02T03:32:16.340Z,10.05
2022-09-02T03:33:16.772Z,10.05
2022-09-02T03:34:17.027Z,10.02
2022-09-02T03:35:16.473Z,10.01
2022-09-02T03:36:16.946Z,9.98
2022-09-02T03:37:16.431Z,9.96
2022-09-02T03:38:16.880Z,9.91
2022-09-02T03:39:16.365Z,9.88
2022-09-02T03:40:16.829Z,9.81
2022-09-02T03:41:16.363Z,9.84
2022-09-02T03:42:19.531Z,9.75
2022-09-02T03:43:16.362Z,9.71
2022-09-02T03:44:16.807Z,9.71
2022-09-02T03:45:17.238Z,9.72
2022-09-02T03:46:16.701Z,9.69
2022-09-02T03:47:16.298Z,9.64
2022-09-02T03:48:16.727Z,9.65
2022-09-02T03:49:17.199Z,9.65
2022-09-02T03:50:16.625Z,9.65
2022-09-02T03:51:17.039Z,9.59
2022-09-02T03:52:16.680Z,9.61
2022-09-02T03:53:18.297Z,9.61
2022-09-02T03:54:16.970Z,9.59
2022-09-02T03:55:16.423Z,9.58
2022-09-02T03:56:16.899Z,9.55
2022-09-02T03:57:16.888Z,9.54
2022-09-02T03:58:16.552Z,9.53
2022-09-02T03:59:16.991Z,9.50
2022-09-02T04:00:16.435Z,9.51
2022-09-02T04:01:17.161Z,9.48
2022-09-02T04:02:16.718Z,9.47
2022-09-02T04:03:16.376Z,9.41
2022-09-02T04:04:19.719Z,9.31
2022-09-02T04:05:16.392Z,9.31
2022-09-02T04:06:16.853Z,9.30
2022-09-02T04:07:16.335Z,9.31
2022-09-02T04:08:16.778Z,9.33
2022-09-02T04:09:17.411Z,9.31
2022-09-02T04:10:16.889Z,9.33
2022-09-02T04:11:16.360Z,9.33
2022-09-02T04:12:17.129Z,9.37
2022-09-02T04:13:16.575Z,9.27
2022-09-02T04:14:17.014Z,9.29
2022-09-02T04:15:16.478Z,9.34
2022-09-02T04:16:16.921Z,9.36
2022-09-02T04:17:16.457Z,9.41
2022-09-02T04:18:16.909Z,9.40
2022-09-02T04:19:16.356Z,9.43
2022-09-02T04:20:16.911Z,9.40
2022-09-02T04:21:16.376Z,9.43
2022-09-02T04:22:16.636Z,9.41
2022-09-02T04:23:17.084Z,9.20
2022-09-02T04:24:16.528Z,9.13
2022-09-02T04:25:17.000Z,9.05
2022-09-02T04:26:16.464Z,9.09
2022-09-02T04:27:16.899Z,9.06
2022-09-02T04:28:16.323Z,9.10
2022-09-02T04:29:16.780Z,9.15
2022-09-02T04:30:17.271Z,9.13
2022-09-02T04:31:16.770Z,9.15
2022-09-02T04:32:16.455Z,9.13
2022-09-02T04:33:16.888Z,9.12
2022-09-02T04:34:16.418Z,9.15
2022-09-02T04:35:16.876Z,9.19
2022-09-02T04:36:16.336Z,9.17
2022-09-02T04:37:16.817Z,9.16
2022-09-02T04:38:17.318Z,9.19
2022-09-02T04:39:16.763Z,9.20
2022-09-02T04:40:17.250Z,9.20
2022-09-02T04:41:16.711Z,9.22
2022-09-02T04:42:17.054Z,9.22
2022-09-02T04:43:16.467Z,9.24
2022-09-02T04:44:16.896Z,9.24
2022-09-02T04:45:16.333Z,9.23
2022-09-02T04:46:16.959Z,9.22
2022-09-02T04:47:17.120Z,9.24
2022-09-02T04:48:16.982Z,9.27
2022-09-02T04:49:16.427Z,9.26
2022-09-02T04:50:16.912Z,9.24
2022-09-02T04:51:16.381Z,9.22
2022-09-02T04:52:16.759Z,9.23
2022-09-02T04:53:17.258Z,9.19
2022-09-02T04:54:16.830Z,9.22
2022-09-02T04:55:17.272Z,9.26
2022-09-02T04:56:16.713Z,9.23
2022-09-02T04:57:17.145Z,9.24
2022-09-02T04:58:16.569Z,9.31
2022-09-02T04:59:16.998Z,9.29
2022-09-02T05:00:16.422Z,9.31
2022-09-02T05:01:16.920Z,9.26
2022-09-02T05:02:16.726Z,9.29
2022-09-02T05:03:16.480Z,9.29
2022-09-02T05:04:16.952Z,9.30
2022-09-02T05:05:16.391Z,9.33
2022-09-02T05:06:16.878Z,9.31
2022-09-02T05:07:16.359Z,9.36
2022-09-02T05:08:16.815Z,9.40
2022-09-02T05:09:17.274Z,9.40
2022-09-02T05:10:16.732Z,9.40
2022-09-02T05:11:17.210Z,9.43
2022-09-02T05:12:16.834Z,9.43
2022-09-02T05:13:17.352Z,9.47
2022-09-02T05:14:17.169Z,9.45
2022-09-02T05:15:16.585Z,9.51
2022-09-02T05:16:17.070Z,9.53
2022-09-02T05:17:16.563Z,9.53
2022-09-02T05:18:16.995Z,9.54
2022-09-02T05:19:16.484Z,9.51
2022-09-02T05:20:16.930Z,9.58
2022-09-02T05:21:16.401Z,9.61
2022-09-02T05:22:16.818Z,9.61
2022-09-02T05:23:17.306Z,9.66
2022-09-02T05:24:16.879Z,9.66
2022-09-02T05:25:16.385Z,9.71
2022-09-02T05:26:16.833Z,9.78
2022-09-02T05:27:17.280Z,9.80
2022-09-02T05:28:16.727Z,9.86
2022-09-02T05:29:17.180Z,9.91
2022-09-02T05:30:16.597Z,9.93
2022-09-02T05:31:17.069Z,9.93
2022-09-02T05:32:16.592Z,10.01
2022-09-02T05:33:17.133Z,9.99
2022-09-02T05:34:16.860Z,9.98
2022-09-02T05:35:16.345Z,9.98
2022-09-02T05:36:16.831Z,10.08
2022-09-02T05:37:17.292Z,10.10
2022-09-02T05:38:16.743Z,10.13
2022-09-02T05:39:17.205Z,10.16
2022-09-02T05:40:16.717Z,10.23
2022-09-02T05:41:17.203Z,10.27
2022-09-02T05:42:16.405Z,10.31
2022-09-02T05:43:16.859Z,10.36
2022-09-02T05:44:16.283Z,10.40
2022-09-02T05:45:16.798Z,10.45
2022-09-02T05:46:17.279Z,10.54
2022-09-02T05:47:17.275Z,10.61
2022-09-02T05:48:16.775Z,10.63
2022-09-02T05:49:17.265Z,10.65
2022-09-02T05:50:16.736Z,10.67
2022-09-02T05:51:16.579Z,10.70
2022-09-02T05:52:16.705Z,10.74
2022-09-02T05:53:17.150Z,10.75
2022-09-02T05:54:16.640Z,10.78
2022-09-02T05:55:17.083Z,10.79
2022-09-02T05:56:16.492Z,10.88
2022-09-02T05:57:16.929Z,10.91
2022-09-02T05:58:16.372Z,10.91
2022-09-02T05:59:16.818Z,10.96
2022-09-02T06:00:18.081Z,11.05
2022-09-02T06:01:16.767Z,11.07
2022-09-02T06:02:17.241Z,11.12
2022-09-02T06:03:17.059Z,11.12
2022-09-02T06:04:16.596Z,11.15
2022-09-02T06:05:17.102Z,11.16
2022-09-02T06:06:16.589Z,11.26
2022-09-02T06:07:17.060Z,11.40
2022-09-02T06:08:16.501Z,11.44
2022-09-02T06:09:16.928Z,11.43
2022-09-02T06:10:16.355Z,11.49
2022-09-02T06:11:16.773Z,11.53
2022-09-02T06:12:16.299Z,11.60
2022-09-02T06:13:16.715Z,11.64
2022-09-02T06:14:17.186Z,11.77
2022-09-02T06:15:16.611Z,11.84
2022-09-02T06:16:17.140Z,11.77
2022-09-02T06:17:16.880Z,11.81
2022-09-02T06:18:16.333Z,11.80
2022-09-02T06:19:19.809Z,11.82
2022-09-02T06:20:17.072Z,11.89
2022-09-02T06:21:16.517Z,11.96
2022-09-02T06:22:16.541Z,11.93
2022-09-02T06:23:16.984Z,12.02
2022-09-02T06:24:16.404Z,12.33
2022-09-02T06:25:16.825Z,12.68
2022-09-02T06:26:17.432Z,12.66
2022-09-02T06:27:16.873Z,12.70
2022-09-02T06:28:16.352Z,12.72
2022-09-02T06:29:16.800Z,12.77
2022-09-02T06:30:17.237Z,12.75
2022-09-02T06:31:16.769Z,12.82
2022-09-02T06:32:16.437Z,13.04
2022-09-02T06:33:16.900Z,13.12
2022-09-02T06:34:16.543Z,13.30
2022-09-02T06:35:17.007Z,13.32
2022-09-02T06:36:16.472Z,13.42
2022-09-02T06:37:16.899Z,13.51
2022-09-02T06:38:16.332Z,13.60
2022-09-02T06:39:16.760Z,13.63
2022-09-02T06:40:17.225Z,13.82
2022-09-02T06:41:16.731Z,13.85
2022-09-02T06:42:16.341Z,13.95
2022-09-02T06:43:16.766Z,14.12
2022-09-02T06:44:17.189Z,14.25
2022-09-02T06:45:16.615Z,14.30
2022-09-02T06:46:17.142Z,14.46
2022-09-02T06:47:16.836Z,14.47
2022-09-02T06:48:16.319Z,14.44
2022-09-02T06:49:16.822Z,14.53
2022-09-02T06:50:16.325Z,14.68
2022-09-02T06:51:16.769Z,14.70
2022-09-02T06:52:16.372Z,14.71
2022-09-02T06:53:16.816Z,14.87
2022-09-02T06:54:17.232Z,15.02
2022-09-02T06:55:16.685Z,15.08
2022-09-02T06:56:17.131Z,15.16
2022-09-02T06:57:16.594Z,15.22
2022-09-02T06:58:17.041Z,15.23
2022-09-02T06:59:16.510Z,15.26
2022-09-02T07:00:16.988Z,15.18
2022-09-02T07:01:16.530Z,15.16
2022-09-02T07:03:16.534Z,15.14
2022-09-02T07:04:17.013Z,15.19
2022-09-02T07:05:16.451Z,15.21
2022-09-02T07:06:16.921Z,15.19
2022-09-02T07:07:16.358Z,15.42
2022-09-02T07:08:16.778Z,15.45
2022-09-02T07:09:17.241Z,15.41
2022-09-02T07:10:16.666Z,15.29
2022-09-02T07:11:17.100Z,15.29
2022-09-02T07:12:17.127Z,15.33
2022-09-02T07:13:16.555Z,15.36
2022-09-02T07:14:16.979Z,15.41
2022-09-02T07:15:16.423Z,15.57
2022-09-02T07:16:18.417Z,15.64
2022-09-02T07:17:16.828Z,15.57
2022-09-02T07:18:16.438Z,15.57
2022-09-02T07:19:20.471Z,15.90
2022-09-02T07:20:16.372Z,15.98
2022-09-02T07:21:16.803Z,16.05
2022-09-02T07:22:18.023Z,16.04
2022-09-02T07:23:16.395Z,16.04
2022-09-02T07:24:16.828Z,16.05
2022-09-02T07:25:17.254Z,16.38
2022-09-02T07:26:16.672Z,16.42
2022-09-02T07:27:17.130Z,16.52
2022-09-02T07:28:16.554Z,16.40
2022-09-02T07:29:16.977Z,16.45
2022-09-02T07:30:16.430Z,16.52
2022-09-02T07:31:16.913Z,16.38
2022-09-02T07:32:16.375Z,16.45
2022-09-02T07:33:16.827Z,16.36
2022-09-02T07:34:16.335Z,16.55
2022-09-02T07:35:16.827Z,16.55
2022-09-02T07:36:17.341Z,16.64
2022-09-02T07:37:16.767Z,16.63
2022-09-02T07:38:17.188Z,16.56
2022-09-02T07:39:16.607Z,16.66
2022-09-02T07:40:17.109Z,16.68
2022-09-02T07:41:16.504Z,16.66
2022-09-02T07:42:16.719Z,16.71
2022-09-02T07:43:16.314Z,16.78
2022-09-02T07:44:16.733Z,16.83
2022-09-02T07:45:17.208Z,16.98
2022-09-02T07:46:16.777Z,17.07
2022-09-02T07:47:16.413Z,17.18
2022-09-02T07:48:16.907Z,17.11
2022-09-02T07:49:17.440Z,17.21
2022-09-02T07:50:20.047Z,17.29
2022-09-02T07:51:16.800Z,17.31
2022-09-02T07:52:17.123Z,17.17
2022-09-02T07:53:16.582Z,17.11
2022-09-02T07:54:17.013Z,17.39
2022-09-02T07:55:16.424Z,17.46
2022-09-02T07:56:16.876Z,17.42
2022-09-02T07:57:16.306Z,17.57
2022-09-02T07:58:16.734Z,17.63
2022-09-02T07:59:17.152Z,17.73
2022-09-02T08:00:16.584Z,17.69
2022-09-02T08:01:20.062Z,17.90
2022-09-02T08:02:16.605Z,17.89
2022-09-02T08:03:17.107Z,17.87
2022-09-02T08:04:16.579Z,17.89
2022-09-02T08:05:17.048Z,18.11
2022-09-02T08:06:16.541Z,18.15
2022-09-02T08:07:17.160Z,18.58
2022-09-02T08:08:16.590Z,18.36
2022-09-02T08:09:17.012Z,18.31
2022-09-02T08:10:16.481Z,18.44
2022-09-02T08:11:16.893Z,18.48
2022-09-02T08:12:17.738Z,18.45
2022-09-02T08:13:16.770Z,18.58
2022-09-02T08:14:17.217Z,18.75
2022-09-02T08:15:17.233Z,18.63
2022-09-02T08:16:16.767Z,18.49
2022-09-02T08:17:16.432Z,18.67
2022-09-02T08:18:17.528Z,18.42
2022-09-02T08:19:17.178Z,18.56
2022-09-02T08:20:16.636Z,18.60
2022-09-02T08:21:17.077Z,18.66
2022-09-02T08:22:16.768Z,18.75
2022-09-02T08:23:25.951Z,18.90
2022-09-02T08:24:16.781Z,19.03
2022-09-02T08:25:17.240Z,19.39
2022-09-02T08:26:16.656Z,19.34
2022-09-02T08:27:17.110Z,19.38
2022-09-02T08:28:16.533Z,19.21
2022-09-02T08:29:16.992Z,19.07
2022-09-02T08:30:16.439Z,19.22
2022-09-02T08:31:16.973Z,19.45
2022-09-02T08:32:16.631Z,19.48
2022-09-02T08:33:17.302Z,19.32
2022-09-02T08:34:16.858Z,19.28
2022-09-02T08:35:16.309Z,19.10
2022-09-02T08:36:16.746Z,18.98
2022-09-02T08:37:17.158Z,18.94
2022-09-02T08:38:16.600Z,18.93
2022-09-02T08:39:17.062Z,19.60
2022-09-02T08:40:16.603Z,19.05
2022-09-02T08:41:17.187Z,19.05
2022-09-02T08:42:16.466Z,19.05
2022-09-02T08:43:16.903Z,19.20
2022-09-02T08:44:16.398Z,19.28
2022-09-02T08:45:16.891Z,18.93
2022-09-02T08:46:16.447Z,18.86
2022-09-02T08:47:17.116Z,19.01
2022-09-02T08:48:16.564Z,19.28
2022-09-02T08:49:17.020Z,19.14
2022-09-02T08:50:16.480Z,19.44
2022-09-02T08:51:16.907Z,19.11
2022-09-02T08:52:17.819Z,19.00
2022-09-02T08:53:16.339Z,18.98
2022-09-02T08:54:16.809Z,19.11
2022-09-02T08:55:17.244Z,19.37
2022-09-02T08:56:16.674Z,19.45
2022-09-02T08:57:17.120Z,19.42
2022-09-02T08:58:16.590Z,19.21
2022-09-02T08:59:17.055Z,19.31
2022-09-02T09:00:16.536Z,19.44
2022-09-02T09:01:17.046Z,19.60
2022-09-02T09:02:17.855Z,19.70
2022-09-02T09:03:16.591Z,19.34
2022-09-02T09:04:17.051Z,19.35
2022-09-02T09:05:16.493Z,19.49
2022-09-02T09:06:16.919Z,19.65
2022-09-02T09:07:16.332Z,19.58
2022-09-02T09:08:17.946Z,19.70
2022-09-02T09:09:16.429Z,19.73
2022-09-02T09:10:16.850Z,19.77
2022-09-02T09:11:17.295Z,19.74
2022-09-02T09:12:17.016Z,19.68
2022-09-02T09:13:16.471Z,19.90
2022-09-02T09:14:16.936Z,19.93
2022-09-02T09:15:16.402Z,19.93
2022-09-02T09:16:17.177Z,19.87
2022-09-02T09:17:16.734Z,20.16
2022-09-02T09:18:17.192Z,20.48
2022-09-02T09:19:16.639Z,19.81
2022-09-02T09:20:17.138Z,19.86
2022-09-02T09:21:16.590Z,19.91
2022-09-02T09:22:16.960Z,20.13
2022-09-02T09:23:20.006Z,20.21
2022-09-02T09:24:16.531Z,20.24
2022-09-02T09:25:16.966Z,20.27
2022-09-02T09:26:16.400Z,20.25
2022-09-02T09:27:16.839Z,20.31
2022-09-02T09:28:17.314Z,20.31
2022-09-02T09:29:16.758Z,20.24
2022-09-02T09:30:16.811Z,20.31
2022-09-02T09:31:17.415Z,19.99
2022-09-02T09:32:16.807Z,19.86
2022-09-02T09:33:17.264Z,20.21
2022-09-02T09:34:16.733Z,20.34
2022-09-02T09:35:17.163Z,20.27
2022-09-02T09:36:16.636Z,20.39
2022-09-02T09:37:17.084Z,20.54
2022-09-02T09:38:16.508Z,20.46
2022-09-02T09:39:16.958Z,20.27
2022-09-02T09:40:16.418Z,20.21
2022-09-02T09:41:16.987Z,20.21
2022-09-02T09:42:16.400Z,20.87
2022-09-02T09:43:16.965Z,20.82
2022-09-02T09:44:16.583Z,20.66
2022-09-02T09:45:17.067Z,20.90
2022-09-02T09:46:16.577Z,20.99
2022-09-02T09:47:18.132Z,21.09
2022-09-02T09:48:16.672Z,20.83
2022-09-02T09:49:17.164Z,20.76
2022-09-02T09:50:16.718Z,21.13
2022-09-02T09:51:16.843Z,21.11
2022-09-02T09:52:16.583Z,21.14
2022-09-02T09:53:17.041Z,21.02
2022-09-02T09:54:16.623Z,20.96
2022-09-02T09:55:19.169Z,21.20
2022-09-02T09:56:16.894Z,20.94
2022-09-02T09:57:16.341Z,21.06
2022-09-02T09:58:16.782Z,21.06
2022-09-02T09:59:17.288Z,21.27
2022-09-02T10:00:16.830Z,21.07
2022-09-02T10:01:16.456Z,20.78
2022-09-02T10:02:16.608Z,20.94
2022-09-02T10:03:17.164Z,21.09
2022-09-02T10:04:32.553Z,20.96
2022-09-02T10:05:17.128Z,21.09
2022-09-02T10:06:16.555Z,21.25
2022-09-02T10:07:17.004Z,21.29
2022-09-02T10:08:16.430Z,21.36
2022-09-02T10:09:16.864Z,21.07
2022-09-02T10:10:16.348Z,20.75
2022-09-02T10:11:16.918Z,20.25
2022-09-02T10:12:17.204Z,20.18
2022-09-02T10:13:16.658Z,20.28
2022-09-02T10:14:17.124Z,20.99
2022-09-02T10:15:16.590Z,21.06
2022-09-02T10:16:17.093Z,20.90
2022-09-02T10:17:16.648Z,21.04
2022-09-02T10:18:17.098Z,21.10
2022-09-02T10:19:16.542Z,21.24
2022-09-02T10:20:16.953Z,21.31
2022-09-02T10:21:16.531Z,21.54
2022-09-02T10:22:17.275Z,21.54
2022-09-02T10:23:16.732Z,21.15
2022-09-02T10:24:17.188Z,21.21
2022-09-02T10:25:16.631Z,21.30
2022-09-02T10:26:17.107Z,21.15
2022-09-02T10:27:16.616Z,21.21
2022-09-02T10:28:17.062Z,21.31
2022-09-02T10:29:16.541Z,21.55
2022-09-02T10:30:16.988Z,21.41
2022-09-02T10:31:16.472Z,21.07
2022-09-02T10:32:17.187Z,21.07
2022-09-02T10:33:16.801Z,21.36
2022-09-02T10:34:17.235Z,21.44
2022-09-02T10:35:16.676Z,21.23
2022-09-02T10:36:19.903Z,21.18
2022-09-02T10:37:16.707Z,20.96
2022-09-02T10:38:17.119Z,21.20
2022-09-02T10:39:16.563Z,21.45
2022-09-02T10:40:17.227Z,21.57
2022-09-02T10:41:17.055Z,21.76
2022-09-02T10:42:17.051Z,21.96
2022-09-02T10:43:16.495Z,21.91
2022-09-02T10:44:16.943Z,21.49
2022-09-02T10:45:16.394Z,21.51
2022-09-02T10:46:16.893Z,21.57
2022-09-02T10:47:16.418Z,21.37
2022-09-02T10:48:16.872Z,21.17
2022-09-02T10:49:16.328Z,21.03
2022-09-02T10:50:16.739Z,21.49
2022-09-02T10:51:17.175Z,21.44
2022-09-02T10:53:16.488Z,20.94
2022-09-02T10:54:17.078Z,20.72
2022-09-02T10:55:16.494Z,20.68
2022-09-02T10:56:16.926Z,20.58
2022-09-02T10:57:16.639Z,20.82
2022-09-02T10:58:17.306Z,20.80
2022-09-02T10:59:16.764Z,21.11
2022-09-02T11:00:17.217Z,21.11
2022-09-02T11:01:16.757Z,21.34
2022-09-02T11:02:17.250Z,21.11
2022-09-02T11:03:16.803Z,21.38
2022-09-02T11:04:16.322Z,21.58
2022-09-02T11:05:16.707Z,21.99
2022-09-02T11:06:17.166Z,21.18
2022-09-02T11:07:16.578Z,21.52
2022-09-02T11:08:17.011Z,21.29
2022-09-02T11:09:16.450Z,21.54
2022-09-02T11:10:16.999Z,22.09
2022-09-02T11:11:16.494Z,21.93
2022-09-02T11:12:16.407Z,21.59
2022-09-02T11:13:16.858Z,21.45
2022-09-02T11:14:16.339Z,20.87
2022-09-02T11:15:16.488Z,21.10
2022-09-02T11:16:17.047Z,21.23
2022-09-02T11:17:16.823Z,20.78
2022-09-02T11:18:16.899Z,20.90
2022-09-02T11:19:16.347Z,21.09
2022-09-02T11:20:16.767Z,21.21
2022-09-02T11:21:16.492Z,21.00
2022-09-02T11:22:16.818Z,20.82
2022-09-02T11:23:17.234Z,20.83
2022-09-02T11:24:16.987Z,20.68
2022-09-02T11:25:16.419Z,20.66
2022-09-02T11:26:17.046Z,20.84
2022-09-02T11:27:32.362Z,20.96
2022-09-02T11:28:17.010Z,21.11
2022-09-02T11:29:16.750Z,21.07
2022-09-02T11:30:17.215Z,21.29
2022-09-02T11:31:16.677Z,21.09
2022-09-02T11:32:16.540Z,21.30
2022-09-02T11:33:17.303Z,21.48
2022-09-02T11:34:16.803Z,22.13
2022-09-02T11:35:17.233Z,22.02
2022-09-02T11:36:16.607Z,22.51
2022-09-02T11:37:19.312Z,22.34
2022-09-02T11:38:17.193Z,22.19
2022-09-02T11:39:25.739Z,22.38
2022-09-02T11:40:33.562Z,22.07
2022-09-02T11:41:35.363Z,22.12
2022-09-02T11:42:16.874Z,21.78
2022-09-02T11:43:16.445Z,21.59
2022-09-02T11:44:16.395Z,21.51
2022-09-02T11:45:16.889Z,21.40
2022-09-02T11:46:16.408Z,21.27
2022-09-02T11:47:16.595Z,21.52
2022-09-02T11:48:16.838Z,21.25
2022-09-02T11:49:16.381Z,20.99
2022-09-02T11:50:16.828Z,21.27
2022-09-02T11:51:17.350Z,21.36
2022-09-02T11:52:17.085Z,21.30
2022-09-02T11:53:16.683Z,21.27
2022-09-02T11:54:17.222Z,21.44
2022-09-02T11:55:16.677Z,21.78
2022-09-02T11:56:16.569Z,22.00
2022-09-02T11:57:17.098Z,21.76
2022-09-02T11:58:16.552Z,21.72
2022-09-02T11:59:17.018Z,21.86
2022-09-02T12:00:16.527Z,22.23
2022-09-02T12:01:16.979Z,22.12
2022-09-02T12:02:16.706Z,22.13
2022-09-02T12:03:38.221Z,22.30
2022-09-02T12:04:55.702Z,22.06
2022-09-02T12:05:17.152Z,21.97
2022-09-02T12:06:16.875Z,21.93
2022-09-02T12:07:16.624Z,21.93
2022-09-02T12:08:17.051Z,21.88
2022-09-02T12:09:16.500Z,21.73
2022-09-02T12:10:16.955Z,21.52
2022-09-02T12:11:16.658Z,21.73
2022-09-02T12:12:17.118Z,21.66
2022-09-02T12:13:16.586Z,21.60
2022-09-02T12:14:17.050Z,21.33
2022-09-02T12:15:16.682Z,21.48
2022-09-02T12:16:16.799Z,21.26
2022-09-02T12:17:16.499Z,21.45
2022-09-02T12:18:16.771Z,21.85
2022-09-02T12:19:16.306Z,21.85
2022-09-02T12:20:16.959Z,21.92
2022-09-02T12:21:19.350Z,21.75
2022-09-02T12:22:16.751Z,21.55
2022-09-02T12:23:16.694Z,21.61
2022-09-02T12:24:17.155Z,21.54
2022-09-02T12:25:16.622Z,21.50
2022-09-02T12:26:17.094Z,21.68
2022-09-02T12:27:16.541Z,21.60
2022-09-02T12:28:19.027Z,21.43
2022-09-02T12:29:16.565Z,21.61
2022-09-02T12:30:16.361Z,21.58
2022-09-02T12:31:17.084Z,21.54
2022-09-02T12:32:16.536Z,21.47
2022-09-02T12:33:16.959Z,21.51
2022-09-02T12:34:16.399Z,21.53
2022-09-02T12:35:16.839Z,21.54
2022-09-02T12:36:16.926Z,21.66
2022-09-02T12:37:16.364Z,21.69
2022-09-02T12:38:16.807Z,21.66
2022-09-02T12:39:17.244Z,21.68
2022-09-02T12:40:16.959Z,21.66
2022-09-02T12:41:16.725Z,21.76
2022-09-02T12:42:16.743Z,21.69
2022-09-02T12:43:17.239Z,21.43
2022-09-02T12:44:16.698Z,21.54
2022-09-02T12:45:17.163Z,21.57
2022-09-02T12:46:16.621Z,21.51
2022-09-02T12:47:17.123Z,21.51
2022-09-02T12:48:16.584Z,21.64
2022-09-02T12:49:17.083Z,21.69
2022-09-02T12:50:16.502Z,21.76
2022-09-02T12:51:16.371Z,21.85
2022-09-02T12:52:16.496Z,21.88
2022-09-02T12:53:20.530Z,21.92
2022-09-02T12:54:16.508Z,21.61
2022-09-02T12:55:16.948Z,21.58
2022-09-02T12:56:16.410Z,21.48
2022-09-02T12:57:16.884Z,21.51
2022-09-02T12:58:16.341Z,21.55